createdAt,value
2022-12-31T04:30:34.805Z,22.20
2022-12-31T04:31:34.830Z,22.20
2022-12-31T04:32:34.797Z,22.19
2022-12-31T04:33:34.781Z,22.20
2022-12-31T04:34:34.768Z,22.20
2022-12-31T04:35:34.758Z,22.20
2022-12-31T04:36:34.750Z,22.22
2022-12-31T04:37:34.739Z,22.22
2022-12-31T04:39:34.752Z,22.19
2022-12-31T04:40:34.716Z,22.19
2022-12-31T04:41:34.705Z,22.19
2022-12-31T04:42:34.718Z,22.19
2022-12-31T04:43:34.705Z,22.20
2022-12-31T04:44:34.679Z,22.17
2022-12-31T04:45:34.723Z,22.22
2022-12-31T04:46:34.663Z,22.20
2022-12-31T04:47:34.755Z,22.22
2022-12-31T04:48:34.643Z,22.20
2022-12-31T04:49:34.633Z,22.23
2022-12-31T04:50:34.622Z,22.23
2022-12-31T04:51:34.617Z,22.22
2022-12-31T04:52:40.520Z,22.23
2022-12-31T04:53:34.600Z,22.22
2022-12-31T04:54:34.594Z,22.23
2022-12-31T04:55:34.607Z,22.20
2022-12-31T04:56:34.570Z,22.20
2022-12-31T04:57:34.565Z,22.22
2022-12-31T04:58:34.553Z,22.22
2022-12-31T04:59:34.544Z,22.20
2022-12-31T05:00:34.538Z,22.20
2022-12-31T05:01:34.631Z,22.22
2022-12-31T05:02:34.729Z,22.22
2022-12-31T05:03:34.508Z,22.20
2022-12-31T05:04:34.500Z,22.22
2022-12-31T05:05:34.491Z,22.20
2022-12-31T05:06:34.486Z,22.22
2022-12-31T05:07:34.475Z,22.23
2022-12-31T05:08:34.464Z,22.23
2022-12-31T05:09:34.454Z,22.23
2022-12-31T05:10:34.454Z,22.22
2022-12-31T05:11:34.460Z,22.24
2022-12-31T05:12:34.449Z,22.23
2022-12-31T05:13:34.420Z,22.24
2022-12-31T05:14:34.407Z,22.22
2022-12-31T05:15:34.401Z,22.23
2022-12-31T05:16:34.458Z,22.22
2022-12-31T05:17:34.388Z,22.22
2022-12-31T05:18:34.379Z,22.23
2022-12-31T05:19:34.368Z,22.23
2022-12-31T05:20:34.361Z,22.23
2022-12-31T05:21:34.358Z,22.22
2022-12-31T05:22:34.336Z,22.23
2022-12-31T05:23:34.343Z,22.23
2022-12-31T05:24:34.329Z,22.24
2022-12-31T05:25:34.312Z,22.23
2022-12-31T05:26:34.307Z,22.24
2022-12-31T05:27:34.321Z,22.24
2022-12-31T05:28:34.283Z,22.22
2022-12-31T05:29:34.285Z,22.24
2022-12-31T05:30:34.335Z,22.24
2022-12-31T05:31:34.256Z,22.24
2022-12-31T05:32:34.252Z,22.24
2022-12-31T05:33:34.245Z,22.23
2022-12-31T05:34:34.231Z,22.26
2022-12-31T05:35:34.238Z,22.23
2022-12-31T05:36:34.211Z,22.23
2022-12-31T05:37:34.201Z,22.24
2022-12-31T05:38:34.196Z,22.24
2022-12-31T05:39:34.185Z,22.22
2022-12-31T05:40:34.180Z,22.24
2022-12-31T05:41:34.173Z,22.23
2022-12-31T05:42:34.159Z,22.24
2022-12-31T05:43:34.176Z,22.23
2022-12-31T05:44:34.143Z,22.22
2022-12-31T05:45:34.148Z,22.24
2022-12-31T05:46:34.142Z,22.24
2022-12-31T05:47:34.118Z,22.23
2022-12-31T05:48:34.120Z,22.26
2022-12-31T05:49:34.096Z,22.24
2022-12-31T05:50:34.090Z,22.24
2022-12-31T05:51:34.103Z,22.24
2022-12-31T05:52:34.072Z,22.24
2022-12-31T05:53:34.064Z,22.24
2022-12-31T05:54:34.060Z,22.24
2022-12-31T05:55:34.043Z,22.24
2022-12-31T05:56:34.035Z,22.23
2022-12-31T05:57:34.029Z,22.24
2022-12-31T05:58:34.015Z,22.23
2022-12-31T05:59:34.037Z,22.23
2022-12-31T06:00:33.999Z,22.24
2022-12-31T06:01:34.062Z,22.24
2022-12-31T06:02:34.007Z,22.24
2022-12-31T06:03:34.004Z,22.24
2022-12-31T06:04:33.968Z,22.26
2022-12-31T06:05:33.953Z,22.26
2022-12-31T06:06:33.966Z,22.24
2022-12-31T06:07:33.939Z,22.24
2022-12-31T06:08:33.933Z,22.23
2022-12-31T06:09:33.919Z,22.23
2022-12-31T06:10:33.911Z,22.22
2022-12-31T06:11:33.907Z,22.24
2022-12-31T06:12:33.891Z,22.24
2022-12-31T06:13:33.884Z,22.24
2022-12-31T06:14:33.872Z,22.26
2022-12-31T06:15:33.977Z,22.28
2022-12-31T06:16:33.866Z,22.26
2022-12-31T06:17:33.843Z,22.24
2022-12-31T06:18:33.833Z,22.26
2022-12-31T06:19:33.828Z,22.26
2022-12-31T06:20:33.821Z,22.24
2022-12-31T06:21:33.810Z,22.24
2022-12-31T06:22:33.806Z,22.23
2022-12-31T06:23:33.789Z,22.23
2022-12-31T06:24:33.781Z,22.24
2022-12-31T06:25:33.773Z,22.22
2022-12-31T06:26:33.768Z,22.23
2022-12-31T06:27:33.760Z,22.24
2022-12-31T06:28:33.747Z,22.23
2022-12-31T06:29:33.735Z,22.24
2022-12-31T06:30:33.732Z,22.23
2022-12-31T06:31:33.792Z,22.22
2022-12-31T06:32:33.709Z,22.24
2022-12-31T06:33:33.706Z,22.23
2022-12-31T06:34:33.693Z,22.24
2022-12-31T06:35:33.686Z,22.23
2022-12-31T06:36:33.689Z,22.24
2022-12-31T06:37:33.663Z,22.24
2022-12-31T06:38:33.664Z,22.23
2022-12-31T06:39:33.649Z,22.23
2022-12-31T06:40:33.640Z,22.24
2022-12-31T06:41:33.630Z,22.24
2022-12-31T06:42:33.618Z,22.26
2022-12-31T06:43:33.616Z,22.24
2022-12-31T06:44:33.606Z,22.26
2022-12-31T06:45:33.604Z,22.26
2022-12-31T06:46:33.657Z,22.28
2022-12-31T06:47:33.597Z,22.23
2022-12-31T06:48:33.568Z,22.23
2022-12-31T06:49:33.555Z,22.26
2022-12-31T06:50:33.552Z,22.23
2022-12-31T06:51:33.542Z,22.23
2022-12-31T06:52:33.535Z,22.23
2022-12-31T06:53:33.523Z,22.24
2022-12-31T06:54:33.515Z,22.24
2022-12-31T06:55:33.505Z,22.24
2022-12-31T06:56:34.963Z,22.26
2022-12-31T06:57:33.537Z,22.23
2022-12-31T06:58:33.536Z,22.23
2022-12-31T06:59:33.519Z,22.23
2022-12-31T07:00:33.513Z,22.23
2022-12-31T07:01:33.617Z,22.24
2022-12-31T07:02:33.571Z,22.24
2022-12-31T07:03:33.509Z,22.23
2022-12-31T07:04:33.474Z,22.23
2022-12-31T07:05:33.467Z,22.23
2022-12-31T18:24:27.312Z,22.16
2022-12-31T18:25:27.325Z,22.15
2022-12-31T19:17:26.835Z,22.16
